createdAt,value
2023-01-06T00:00:08.287Z,32.70
2023-01-06T00:03:35.951Z,32.70
2023-01-06T00:07:05.983Z,32.70
2023-01-06T00:10:30.011Z,32.70
2023-01-06T00:13:54.045Z,32.70
2023-01-06T00:17:23.680Z,32.70
2023-01-06T00:20:48.099Z,32.70
2023-01-06T00:24:13.391Z,32.70
2023-01-06T00:27:36.155Z,32.70
2023-01-06T00:31:00.226Z,32.80
2023-01-06T00:34:24.220Z,32.70
2023-01-06T00:37:48.258Z,33.40
2023-01-06T00:41:13.537Z,32.80
2023-01-06T00:44:42.306Z,33.40
2023-01-06T00:48:10.095Z,32.80
2023-01-06T00:51:42.376Z,32.80
2023-01-06T00:55:10.296Z,32.80
2023-01-06T00:58:36.435Z,32.90
2023-01-06T01:02:06.586Z,32.80
2023-01-06T01:05:30.502Z,32.80
2023-01-06T01:09:06.541Z,32.80
2023-01-06T01:12:36.572Z,32.80
2023-01-06T01:16:06.638Z,32.80
2023-01-06T01:19:30.643Z,32.90
2023-01-06T01:22:54.674Z,32.80
2023-01-06T01:26:30.709Z,32.90
2023-01-06T02:02:23.447Z,32.90
2023-01-06T02:05:53.030Z,32.90
2023-01-06T02:09:23.177Z,32.90
2023-01-06T02:12:53.006Z,32.90
2023-01-06T02:25:33.457Z,32.90
2023-01-06T02:29:26.546Z,32.90
2023-01-06T02:33:09.015Z,32.90
2023-01-06T02:36:56.731Z,33.00
2023-01-06T02:40:32.600Z,32.90
2023-01-06T02:44:09.588Z,33.00
2023-01-06T02:47:29.320Z,33.00
2023-01-06T02:51:14.388Z,33.00
2023-01-06T02:54:44.728Z,33.00
2023-01-06T02:58:14.451Z,33.00
2023-01-06T03:01:38.876Z,33.00
2023-01-06T03:05:14.836Z,33.00
2023-01-06T03:08:44.858Z,33.00
2023-01-06T03:12:20.899Z,32.90
2023-01-06T03:15:44.970Z,33.00
2023-01-06T03:18:57.303Z,33.00
2023-01-06T03:22:20.982Z,33.00
2023-01-06T03:25:57.015Z,33.00
2023-01-06T03:29:23.667Z,33.00
2023-01-06T03:32:51.075Z,33.00
2023-01-06T03:36:21.109Z,33.00
2023-01-06T03:39:57.142Z,33.00
2023-01-06T03:43:45.179Z,33.00
2023-01-06T03:47:17.818Z,33.00
2023-01-06T03:50:57.247Z,33.00
2023-01-06T03:54:21.270Z,33.00
2023-01-06T03:57:51.299Z,33.00
2023-01-06T04:01:33.346Z,33.00
2023-01-06T04:04:57.384Z,33.00
2023-01-06T04:08:39.408Z,33.00
2023-01-06T04:12:03.428Z,33.00
2023-01-06T04:15:24.975Z,33.10
2023-01-06T04:18:45.480Z,33.10
2023-01-06T04:22:18.106Z,33.10
2023-01-06T04:25:51.540Z,33.10
2023-01-06T04:29:24.174Z,33.10
2023-01-06T04:32:54.199Z,33.10
2023-01-06T04:36:24.230Z,33.10
2023-01-06T04:39:51.672Z,33.10
2023-01-06T04:43:21.726Z,33.10
2023-01-06T04:46:33.761Z,33.10
2023-01-06T04:49:45.793Z,33.10
2023-01-06T04:52:57.841Z,33.10
2023-01-06T04:56:09.864Z,33.10
2023-01-06T04:59:21.895Z,33.10
2023-01-06T05:02:27.860Z,33.10
2023-01-06T05:05:33.949Z,33.10
2023-01-06T05:08:45.964Z,33.10
2023-01-06T05:11:51.977Z,33.10
2023-01-06T05:15:10.056Z,33.10
2023-01-06T05:18:15.643Z,33.10
2023-01-06T05:21:28.376Z,33.10
2023-01-06T05:24:40.091Z,33.10
2023-01-06T05:27:46.108Z,33.10
2023-01-06T05:30:50.653Z,33.10
2023-01-06T05:33:58.162Z,33.10
2023-01-06T05:37:02.905Z,33.10
2023-01-06T05:40:16.212Z,33.10
2023-01-06T05:43:28.243Z,33.20
2023-01-06T05:46:40.266Z,33.20
2023-01-06T05:49:46.938Z,33.20
2023-01-06T05:52:49.565Z,33.20
2023-01-06T05:56:04.409Z,33.20
2023-01-06T05:59:16.382Z,33.20
2023-01-06T06:02:28.537Z,33.20
2023-01-06T06:05:58.496Z,33.20
2023-01-06T06:09:40.529Z,33.20
2023-01-06T06:13:10.565Z,33.20
2023-01-06T06:16:52.573Z,33.20
2023-01-06T06:20:34.649Z,33.20
2023-01-06T06:23:58.674Z,33.20
2023-01-06T06:31:23.535Z,33.10
2023-01-06T06:59:28.914Z,33.20
2023-01-06T07:02:52.941Z,33.20
2023-01-06T07:06:16.968Z,33.20
2023-01-06T07:09:40.995Z,33.20
2023-01-06T07:13:11.026Z,33.20
2023-01-06T07:16:47.061Z,33.20
2023-01-06T07:20:23.091Z,33.30
2023-01-06T07:23:53.118Z,33.20
2023-01-06T07:27:23.151Z,33.30
2023-01-06T07:30:47.181Z,33.30
2023-01-06T07:34:23.215Z,33.30
2023-01-06T07:37:53.239Z,33.30
2023-01-06T07:41:23.279Z,33.30
2023-01-06T07:44:53.310Z,33.30
2023-01-06T07:48:23.331Z,33.30
2023-01-06T08:42:01.677Z,33.30
2023-01-06T08:45:25.772Z,33.30
2023-01-06T08:48:55.747Z,33.30
2023-01-06T08:52:31.788Z,33.30
2023-01-06T08:56:01.827Z,33.30
2023-01-06T08:59:37.859Z,33.30
2023-01-06T09:03:07.923Z,33.30
2023-01-06T09:06:37.938Z,33.30
2023-01-06T09:10:07.976Z,33.20
2023-01-06T09:13:38.000Z,33.30
2023-01-06T09:17:14.036Z,33.30
2023-01-06T09:20:44.069Z,33.30
2023-01-06T09:24:14.141Z,33.30
2023-01-06T09:27:38.125Z,33.30
2023-01-06T09:31:08.203Z,33.30
2023-01-06T09:34:50.202Z,33.20
2023-01-06T09:38:20.239Z,33.20
2023-01-06T09:42:08.275Z,33.20
2023-01-06T09:45:38.298Z,33.20
2023-01-06T09:49:08.343Z,33.10
2023-01-06T09:52:50.365Z,33.10
2023-01-06T09:56:20.399Z,33.10
2023-01-06T09:59:56.432Z,33.10
2023-01-06T10:03:38.482Z,33.10
2023-01-06T10:07:08.502Z,33.10
2023-01-06T10:10:50.551Z,33.10
2023-01-06T10:14:32.574Z,33.10
2023-01-06T10:18:20.611Z,33.10
2023-01-06T10:21:56.653Z,33.10
2023-01-06T10:25:32.672Z,33.10
2023-01-06T10:29:08.702Z,33.10
2023-01-06T10:32:38.734Z,33.10
2023-01-06T10:36:08.761Z,33.10
2023-01-06T10:39:38.793Z,33.10
2023-01-06T10:43:20.823Z,33.10
2023-01-06T10:46:50.917Z,33.00
2023-01-06T10:50:20.893Z,33.10
2023-01-06T10:53:50.924Z,33.00
2023-01-06T11:01:46.850Z,33.00
2023-01-06T11:38:41.116Z,33.00
2023-01-06T11:42:17.145Z,32.90
2023-01-06T11:46:11.352Z,32.90
2023-01-06T11:54:17.259Z,32.90
2023-01-06T11:58:17.293Z,32.90
2023-01-06T12:02:18.641Z,33.00
2023-01-06T12:05:47.350Z,32.90
2023-01-06T12:09:29.389Z,33.00
2023-01-06T12:21:06.032Z,33.00
2023-01-06T12:33:21.159Z,33.00
2023-01-06T12:36:47.653Z,33.00
2023-01-06T13:10:49.292Z,33.00
2023-01-06T13:14:29.129Z,33.00
2023-01-06T13:40:17.878Z,33.10
2023-01-06T14:28:47.017Z,33.10
2023-01-06T14:48:05.769Z,33.10
2023-01-06T14:51:30.543Z,33.20
2023-01-06T14:58:41.672Z,33.20
2023-01-06T15:02:11.335Z,33.20
2023-01-06T15:05:53.168Z,33.20
2023-01-06T15:09:23.201Z,33.20
2023-01-06T15:12:56.674Z,33.20
2023-01-06T15:16:29.279Z,33.20
2023-01-06T15:19:59.320Z,33.20
2023-01-06T15:23:35.358Z,33.30
2023-01-06T15:27:05.393Z,33.30
2023-01-06T15:30:53.479Z,33.30
2023-01-06T15:34:23.469Z,33.30
2023-01-06T15:37:53.503Z,33.30
2023-01-06T15:41:47.540Z,33.30
2023-01-06T15:44:56.156Z,33.30
2023-01-06T15:48:01.066Z,33.30
2023-01-06T15:51:08.241Z,33.30
2023-01-06T15:54:19.143Z,33.30
2023-01-06T15:57:21.480Z,33.30
2023-01-06T16:00:25.137Z,33.30
2023-01-06T16:03:43.454Z,33.30
2023-01-06T16:06:55.180Z,33.40
2023-01-06T16:09:55.518Z,33.40
2023-01-06T16:13:07.248Z,33.40
2023-01-06T16:16:13.672Z,33.30
2023-01-06T16:19:19.303Z,33.30
2023-01-06T16:22:37.648Z,33.30
2023-01-06T16:25:55.372Z,33.30
2023-01-06T16:29:07.714Z,33.30
2023-01-06T16:32:13.436Z,33.30
2023-01-06T16:35:25.790Z,33.40
2023-01-06T16:38:31.499Z,33.40
2023-01-06T16:41:43.526Z,33.40
2023-01-06T16:44:55.552Z,33.30
2023-01-06T16:48:07.902Z,33.30
2023-01-06T16:51:07.613Z,33.30
2023-01-06T16:54:19.954Z,33.40
2023-01-06T16:57:25.691Z,33.40
2023-01-06T17:00:38.010Z,33.30
2023-01-06T17:03:43.711Z,33.30
2023-01-06T17:06:55.763Z,33.30
2023-01-06T17:10:02.102Z,33.30
2023-01-06T17:13:25.822Z,33.40
2023-01-06T17:16:43.851Z,33.40
2023-01-06T17:19:56.187Z,33.40
2023-01-06T17:23:01.909Z,33.40
2023-01-06T17:26:07.936Z,33.40
2023-01-06T17:29:07.960Z,33.40
2023-01-06T17:32:14.296Z,33.40
2023-01-06T17:35:20.023Z,33.40
2023-01-06T17:38:38.357Z,33.40
2023-01-06T17:42:02.387Z,33.40
2023-01-06T17:45:36.654Z,33.40
2023-01-06T17:49:12.681Z,33.40
2023-01-06T17:52:48.711Z,33.40
2023-01-06T17:56:12.743Z,33.40
2023-01-06T17:59:42.767Z,33.40
2023-01-06T18:03:18.807Z,33.40
2023-01-06T18:07:00.829Z,33.40
2023-01-06T18:10:10.134Z,33.40
2023-01-06T18:13:42.883Z,33.40
2023-01-06T18:17:12.909Z,33.40
2023-01-06T18:20:42.938Z,33.40
2023-01-06T18:24:20.094Z,33.40
2023-01-06T18:27:54.996Z,33.40
2023-01-06T18:31:31.080Z,33.50
2023-01-06T18:35:13.063Z,33.50
2023-01-06T18:38:43.089Z,33.40
2023-01-06T18:42:09.313Z,33.40
2023-01-06T18:45:37.234Z,33.40
2023-01-06T18:57:39.196Z,33.40
2023-01-06T20:25:22.504Z,33.60
2023-01-06T20:28:58.203Z,33.50
2023-01-06T20:36:46.219Z,33.50
2023-01-06T20:40:58.267Z,33.60
2023-01-06T20:44:22.281Z,33.50
2023-01-06T20:51:40.346Z,33.50
2023-01-06T20:55:16.377Z,33.50
2023-01-06T20:58:52.404Z,33.60
2023-01-06T21:02:40.517Z,33.60
2023-01-06T21:05:58.462Z,33.60
2023-01-06T21:09:46.506Z,33.60
2023-01-06T21:13:24.000Z,33.50
2023-01-06T21:17:40.578Z,33.60
2023-01-06T21:21:10.608Z,33.50
2023-01-06T21:25:10.642Z,33.50
2023-01-06T21:28:52.676Z,33.50
2023-01-06T21:33:10.709Z,33.60
2023-01-06T21:36:52.741Z,33.50
2023-01-06T21:40:22.778Z,33.50
2023-01-06T21:44:04.803Z,33.60
2023-01-06T21:47:58.834Z,33.60
2023-01-06T21:51:22.868Z,33.60
2023-01-06T21:55:16.905Z,33.60
2023-01-06T21:58:40.944Z,33.60
2023-01-06T22:02:11.154Z,33.60
2023-01-06T22:05:47.004Z,33.60
2023-01-06T22:09:41.033Z,33.60
2023-01-06T22:13:23.066Z,33.60
2023-01-06T22:16:53.163Z,33.60
2023-01-06T22:20:35.125Z,33.60
2023-01-06T22:28:17.194Z,33.60
2023-01-06T22:31:47.225Z,33.60
2023-01-06T22:35:11.248Z,33.60
2023-01-06T22:39:05.284Z,33.60
2023-01-06T22:42:53.316Z,33.60
2023-01-06T22:46:47.352Z,33.60
2023-01-06T22:50:41.377Z,33.60
2023-01-06T22:54:29.103Z,33.60
2023-01-06T22:58:11.453Z,33.60
2023-01-06T23:02:13.696Z,33.60
2023-01-06T23:06:05.533Z,33.70
2023-01-06T23:13:41.595Z,33.60
2023-01-06T23:17:59.638Z,33.60
2023-01-06T23:21:41.676Z,33.60
2023-01-06T23:25:11.708Z,33.60
2023-01-06T23:28:41.744Z,34.20
2023-01-06T23:36:41.818Z,33.60
2023-01-06T23:43:53.878Z,33.60
2023-01-06T23:48:11.911Z,33.60
2023-01-06T23:51:53.943Z,33.70
2023-01-06T23:55:35.976Z,33.60
